Brady, Texas
Current Conditions -  °F | °C
As of 10:15 PM on Tuesday 25 Nov 2014 (Local Time) from KBBD Reporting Station
Clear Clear  
Wind Chill: 39°   Ceiling: Unl
Heat Index: 39°   Visibility: 10mi
Dew Point: 25°   Wind: 3mph
Humidity: 56%   Direction: 190°S
Pressure: 30.16"   Gusts: NA
Location:  31.13°N, 99.34°W
Report Text: KBBD 260415Z AUTO 19003KT 10SM CLR 04/M04 A3016 RMK
Loading
Personal Weather Stations






























Interactive Weather Map New forecast layout! Learn more

10-Day Weather Forecast

Advertisements
Track Severe Weather on mobile